sensor_id;sensor_type;location;lat;lon;timestamp;temperature;humidity
5419;DHT22;2732;52.092;11.556;2023-07-20T00:00:04;18.00;99.90
5419;DHT22;2732;52.092;11.556;2023-07-20T00:05:05;17.90;99.90
5419;DHT22;2732;52.092;11.556;2023-07-20T00:10:06;17.90;99.90
5419;DHT22;2732;52.092;11.556;2023-07-20T00:15:08;17.80;99.90
5419;DHT22;2732;52.092;11.556;2023-07-20T00:20:09;17.80;99.90
5419;DHT22;2732;52.092;11.556;2023-07-20T00:25:10;17.70;99.90
5419;DHT22;2732;52.092;11.556;2023-07-20T00:30:14;17.60;99.90
5419;DHT22;2732;52.092;11.556;2023-07-20T00:35:15;17.60;99.90
5419;DHT22;2732;52.092;11.556;2023-07-20T00:40:15;17.50;99.90
5419;DHT22;2732;52.092;11.556;2023-07-20T00:45:20;17.40;99.90
5419;DHT22;2732;52.092;11.556;2023-07-20T00:50:21;17.30;99.90
5419;DHT22;2732;52.092;11.556;2023-07-20T00:55:24;17.30;99.90
5419;DHT22;2732;52.092;11.556;2023-07-20T01:00:25;17.20;99.90
5419;DHT22;2732;52.092;11.556;2023-07-20T01:05:47;17.20;99.90
5419;DHT22;2732;52.092;11.556;2023-07-20T01:11:10;17.10;99.90
5419;DHT22;2732;52.092;11.556;2023-07-20T01:16:15;17.00;99.90
5419;DHT22;2732;52.092;11.556;2023-07-20T01:21:28;17.00;99.90
5419;DHT22;2732;52.092;11.556;2023-07-20T01:26:48;16.80;99.90
5419;DHT22;2732;52.092;11.556;2023-07-20T01:32:04;16.80;99.90
5419;DHT22;2732;52.092;11.556;2023-07-20T01:37:08;16.70;99.90
5419;DHT22;2732;52.092;11.556;2023-07-20T01:42:09;16.60;99.90
5419;DHT22;2732;52.092;11.556;2023-07-20T01:47:10;16.50;99.90
5419;DHT22;2732;52.092;11.556;2023-07-20T01:52:10;16.40;99.90
5419;DHT22;2732;52.092;11.556;2023-07-20T01:57:11;16.40;99.90
5419;DHT22;2732;52.092;11.556;2023-07-20T02:02:12;16.30;99.90
5419;DHT22;2732;52.092;11.556;2023-07-20T02:07:12;16.30;99.90
5419;DHT22;2732;52.092;11.556;2023-07-20T02:12:13;16.20;99.90
5419;DHT22;2732;52.092;11.556;2023-07-20T02:17:14;16.10;99.90
5419;DHT22;2732;52.092;11.556;2023-07-20T02:22:14;16.10;99.90
5419;DHT22;2732;52.092;11.556;2023-07-20T02:27:15;16.00;99.90
5419;DHT22;2732;52.092;11.556;2023-07-20T02:32:16;16.00;99.90
5419;DHT22;2732;52.092;11.556;2023-07-20T02:37:17;16.00;99.90
5419;DHT22;2732;52.092;11.556;2023-07-20T02:42:19;16.00;99.90
5419;DHT22;2732;52.092;11.556;2023-07-20T02:47:23;16.00;99.90
5419;DHT22;2732;52.092;11.556;2023-07-20T02:52:23;15.90;99.90
5419;DHT22;2732;52.092;11.556;2023-07-20T02:57:24;15.90;99.90
5419;DHT22;2732;52.092;11.556;2023-07-20T03:02:25;15.90;99.90
5419;DHT22;2732;52.092;11.556;2023-07-20T03:07:27;15.90;99.90
5419;DHT22;2732;52.092;11.556;2023-07-20T03:12:28;15.90;99.90
5419;DHT22;2732;52.092;11.556;2023-07-20T03:17:29;15.90;99.90
5419;DHT22;2732;52.092;11.556;2023-07-20T03:22:30;15.90;99.90
5419;DHT22;2732;52.092;11.556;2023-07-20T03:27:30;15.90;99.90
5419;DHT22;2732;52.092;11.556;2023-07-20T03:32:31;15.90;99.90
5419;DHT22;2732;52.092;11.556;2023-07-20T03:37:32;15.90;99.90
5419;DHT22;2732;52.092;11.556;2023-07-20T03:42:32;15.90;99.90
5419;DHT22;2732;52.092;11.556;2023-07-20T03:47:33;15.90;99.90
5419;DHT22;2732;52.092;11.556;2023-07-20T03:52:34;15.90;99.90
5419;DHT22;2732;52.092;11.556;2023-07-20T03:57:34;15.90;99.90
5419;DHT22;2732;52.092;11.556;2023-07-20T04:02:35;15.90;99.90
5419;DHT22;2732;52.092;11.556;2023-07-20T04:07:35;15.90;99.90
5419;DHT22;2732;52.092;11.556;2023-07-20T04:12:36;15.90;99.90
5419;DHT22;2732;52.092;11.556;2023-07-20T04:17:37;15.90;99.90
5419;DHT22;2732;52.092;11.556;2023-07-20T04:22:37;15.90;99.90
5419;DHT22;2732;52.092;11.556;2023-07-20T04:27:38;15.90;99.90
5419;DHT22;2732;52.092;11.556;2023-07-20T04:32:40;15.90;99.90
5419;DHT22;2732;52.092;11.556;2023-07-20T04:37:44;15.90;99.90
5419;DHT22;2732;52.092;11.556;2023-07-20T04:42:46;15.90;99.90
5419;DHT22;2732;52.092;11.556;2023-07-20T04:47:47;16.00;99.90
5419;DHT22;2732;52.092;11.556;2023-07-20T04:52:47;16.00;99.90
5419;DHT22;2732;52.092;11.556;2023-07-20T04:57:48;16.10;99.90
5419;DHT22;2732;52.092;11.556;2023-07-20T05:02:49;16.10;99.90
5419;DHT22;2732;52.092;11.556;2023-07-20T05:07:50;16.10;99.90
5419;DHT22;2732;52.092;11.556;2023-07-20T05:12:52;16.20;99.90
5419;DHT22;2732;52.092;11.556;2023-07-20T05:17:52;16.30;99.90
5419;DHT22;2732;52.092;11.556;2023-07-20T05:22:53;16.30;99.90
5419;DHT22;2732;52.092;11.556;2023-07-20T05:27:54;16.40;99.90
5419;DHT22;2732;52.092;11.556;2023-07-20T05:32:55;16.40;99.90
5419;DHT22;2732;52.092;11.556;2023-07-20T05:37:56;16.40;99.90
5419;DHT22;2732;52.092;11.556;2023-07-20T05:42:57;16.60;99.90
5419;DHT22;2732;52.092;11.556;2023-07-20T05:47:57;16.80;99.90
5419;DHT22;2732;52.092;11.556;2023-07-20T05:52:58;16.90;99.90
5419;DHT22;2732;52.092;11.556;2023-07-20T05:58:01;16.90;99.90
5419;DHT22;2732;52.092;11.556;2023-07-20T06:03:02;16.90;99.90
5419;DHT22;2732;52.092;11.556;2023-07-20T06:08:03;16.80;99.90
5419;DHT22;2732;52.092;11.556;2023-07-20T06:13:04;16.80;99.90
5419;DHT22;2732;52.092;11.556;2023-07-20T06:18:05;16.80;99.90
5419;DHT22;2732;52.092;11.556;2023-07-20T06:23:05;16.90;99.90
5419;DHT22;2732;52.092;11.556;2023-07-20T06:28:06;17.10;99.90
5419;DHT22;2732;52.092;11.556;2023-07-20T06:33:06;17.20;99.90
5419;DHT22;2732;52.092;11.556;2023-07-20T06:38:07;17.30;99.90
5419;DHT22;2732;52.092;11.556;2023-07-20T06:43:08;17.50;99.90
5419;DHT22;2732;52.092;11.556;2023-07-20T06:48:09;17.70;99.90
5419;DHT22;2732;52.092;11.556;2023-07-20T06:53:09;17.80;99.90
5419;DHT22;2732;52.092;11.556;2023-07-20T06:58:11;18.00;99.90
5419;DHT22;2732;52.092;11.556;2023-07-20T07:03:12;18.30;99.90
5419;DHT22;2732;52.092;11.556;2023-07-20T07:08:12;18.60;99.90
5419;DHT22;2732;52.092;11.556;2023-07-20T07:13:13;18.90;99.90
5419;DHT22;2732;52.092;11.556;2023-07-20T07:18:14;19.10;99.90
5419;DHT22;2732;52.092;11.556;2023-07-20T07:23:14;19.20;99.90
5419;DHT22;2732;52.092;11.556;2023-07-20T07:28:15;19.20;99.90
5419;DHT22;2732;52.092;11.556;2023-07-20T07:33:15;19.20;99.90
5419;DHT22;2732;52.092;11.556;2023-07-20T07:38:16;19.30;99.90
5419;DHT22;2732;52.092;11.556;2023-07-20T07:43:17;19.60;99.90
5419;DHT22;2732;52.092;11.556;2023-07-20T07:48:18;19.90;99.90
5419;DHT22;2732;52.092;11.556;2023-07-20T07:53:21;20.20;99.90
5419;DHT22;2732;52.092;11.556;2023-07-20T07:58:21;20.50;99.90
5419;DHT22;2732;52.092;11.556;2023-07-20T08:03:23;20.50;99.90
5419;DHT22;2732;52.092;11.556;2023-07-20T08:08:24;20.60;99.90
5419;DHT22;2732;52.092;11.556;2023-07-20T08:13:25;20.60;99.90
5419;DHT22;2732;52.092;11.556;2023-07-20T08:18:25;20.40;99.90
5419;DHT22;2732;52.092;11.556;2023-07-20T08:23:26;20.30;99.90
5419;DHT22;2732;52.092;11.556;2023-07-20T08:28:28;20.40;99.90
5419;DHT22;2732;52.092;11.556;2023-07-20T08:33:29;20.50;99.90
5419;DHT22;2732;52.092;11.556;2023-07-20T08:38:33;20.60;99.90
5419;DHT22;2732;52.092;11.556;2023-07-20T08:43:36;20.60;99.90
5419;DHT22;2732;52.092;11.556;2023-07-20T08:48:38;20.50;99.90
5419;DHT22;2732;52.092;11.556;2023-07-20T08:53:41;20.50;99.90
5419;DHT22;2732;52.092;11.556;2023-07-20T08:58:43;20.40;99.90
5419;DHT22;2732;52.092;11.556;2023-07-20T09:03:45;20.20;99.90
5419;DHT22;2732;52.092;11.556;2023-07-20T09:08:46;20.10;99.90
5419;DHT22;2732;52.092;11.556;2023-07-20T09:13:47;20.10;99.90
5419;DHT22;2732;52.092;11.556;2023-07-20T09:18:48;20.30;99.90
5419;DHT22;2732;52.092;11.556;2023-07-20T09:23:48;20.50;99.90
5419;DHT22;2732;52.092;11.556;2023-07-20T09:28:53;20.70;99.90
5419;DHT22;2732;52.092;11.556;2023-07-20T09:33:56;20.80;99.90
5419;DHT22;2732;52.092;11.556;2023-07-20T09:38:56;21.00;99.90
5419;DHT22;2732;52.092;11.556;2023-07-20T09:44:01;21.10;99.90
5419;DHT22;2732;52.092;11.556;2023-07-20T09:49:08;21.10;99.90
5419;DHT22;2732;52.092;11.556;2023-07-20T09:54:10;21.10;99.90
5419;DHT22;2732;52.092;11.556;2023-07-20T09:59:11;21.10;99.50
5419;DHT22;2732;52.092;11.556;2023-07-20T10:04:13;21.40;99.40
5419;DHT22;2732;52.092;11.556;2023-07-20T10:09:15;21.70;98.70
5419;DHT22;2732;52.092;11.556;2023-07-20T10:14:20;22.10;98.10
5419;DHT22;2732;52.092;11.556;2023-07-20T10:19:39;22.50;97.30
5419;DHT22;2732;52.092;11.556;2023-07-20T10:24:47;23.40;96.10
5419;DHT22;2732;52.092;11.556;2023-07-20T10:29:48;24.60;94.00
5419;DHT22;2732;52.092;11.556;2023-07-20T10:34:51;24.20;93.40
5419;DHT22;2732;52.092;11.556;2023-07-20T10:39:55;24.10;92.60
5419;DHT22;2732;52.092;11.556;2023-07-20T10:44:57;24.30;91.30
5419;DHT22;2732;52.092;11.556;2023-07-20T10:49:58;24.60;90.80
5419;DHT22;2732;52.092;11.556;2023-07-20T10:55:16;25.50;89.00
5419;DHT22;2732;52.092;11.556;2023-07-20T11:00:21;26.30;84.30
5419;DHT22;2732;52.092;11.556;2023-07-20T11:05:34;25.90;81.40
5419;DHT22;2732;52.092;11.556;2023-07-20T11:10:43;26.80;78.60
5419;DHT22;2732;52.092;11.556;2023-07-20T11:16:02;27.20;77.40
5419;DHT22;2732;52.092;11.556;2023-07-20T11:21:07;27.90;73.80
5419;DHT22;2732;52.092;11.556;2023-07-20T11:26:09;27.50;71.90
5419;DHT22;2732;52.092;11.556;2023-07-20T11:31:14;26.60;71.10
5419;DHT22;2732;52.092;11.556;2023-07-20T11:36:16;26.90;70.40
5419;DHT22;2732;52.092;11.556;2023-07-20T11:41:17;27.70;68.30
5419;DHT22;2732;52.092;11.556;2023-07-20T11:46:17;28.30;65.20
5419;DHT22;2732;52.092;11.556;2023-07-20T11:51:18;28.80;61.50
5419;DHT22;2732;52.092;11.556;2023-07-20T11:56:25;29.40;58.00
5419;DHT22;2732;52.092;11.556;2023-07-20T12:01:27;29.50;56.80
5419;DHT22;2732;52.092;11.556;2023-07-20T12:06:30;29.40;56.40
5419;DHT22;2732;52.092;11.556;2023-07-20T12:11:36;29.50;54.60
5419;DHT22;2732;52.092;11.556;2023-07-20T12:16:38;29.20;53.20
5419;DHT22;2732;52.092;11.556;2023-07-20T12:21:41;28.60;53.10
5419;DHT22;2732;52.092;11.556;2023-07-20T12:26:43;29.10;54.20
5419;DHT22;2732;52.092;11.556;2023-07-20T12:31:44;29.80;53.60
5419;DHT22;2732;52.092;11.556;2023-07-20T12:36:44;29.90;51.90
5419;DHT22;2732;52.092;11.556;2023-07-20T12:41:45;29.70;52.20
5419;DHT22;2732;52.092;11.556;2023-07-20T12:46:46;30.30;53.00
5419;DHT22;2732;52.092;11.556;2023-07-20T12:51:47;30.90;51.10
5419;DHT22;2732;52.092;11.556;2023-07-20T12:56:47;30.10;51.50
5419;DHT22;2732;52.092;11.556;2023-07-20T13:01:48;30.00;51.40
5419;DHT22;2732;52.092;11.556;2023-07-20T13:06:49;30.30;49.80
5419;DHT22;2732;52.092;11.556;2023-07-20T13:11:49;30.50;49.90
5419;DHT22;2732;52.092;11.556;2023-07-20T13:16:50;30.70;48.70
5419;DHT22;2732;52.092;11.556;2023-07-20T13:21:50;31.20;47.90
5419;DHT22;2732;52.092;11.556;2023-07-20T13:26:51;31.00;47.00
5419;DHT22;2732;52.092;11.556;2023-07-20T13:31:52;31.20;47.20
5419;DHT22;2732;52.092;11.556;2023-07-20T13:36:53;31.30;47.10
5419;DHT22;2732;52.092;11.556;2023-07-20T13:41:54;31.20;47.00
5419;DHT22;2732;52.092;11.556;2023-07-20T13:46:55;31.40;47.70
5419;DHT22;2732;52.092;11.556;2023-07-20T13:51:55;31.20;48.40
5419;DHT22;2732;52.092;11.556;2023-07-20T13:56:57;30.90;47.90
5419;DHT22;2732;52.092;11.556;2023-07-20T14:01:58;31.20;46.50
5419;DHT22;2732;52.092;11.556;2023-07-20T14:06:58;30.40;48.20
5419;DHT22;2732;52.092;11.556;2023-07-20T14:11:59;30.70;48.20
5419;DHT22;2732;52.092;11.556;2023-07-20T14:17:02;30.10;47.50
5419;DHT22;2732;52.092;11.556;2023-07-20T14:22:02;29.40;49.00
5419;DHT22;2732;52.092;11.556;2023-07-20T14:27:04;29.00;47.90
5419;DHT22;2732;52.092;11.556;2023-07-20T14:32:05;29.40;48.50
5419;DHT22;2732;52.092;11.556;2023-07-20T14:37:07;30.10;47.70
5419;DHT22;2732;52.092;11.556;2023-07-20T14:42:08;30.80;46.40
5419;DHT22;2732;52.092;11.556;2023-07-20T14:47:09;31.00;46.20
5419;DHT22;2732;52.092;11.556;2023-07-20T14:52:09;30.80;46.80
5419;DHT22;2732;52.092;11.556;2023-07-20T14:57:11;30.80;46.50
5419;DHT22;2732;52.092;11.556;2023-07-20T15:02:14;30.30;46.50
5419;DHT22;2732;52.092;11.556;2023-07-20T15:07:19;30.60;47.20
5419;DHT22;2732;52.092;11.556;2023-07-20T15:12:24;31.00;46.70
5419;DHT22;2732;52.092;11.556;2023-07-20T15:17:25;31.10;45.10
5419;DHT22;2732;52.092;11.556;2023-07-20T15:22:26;30.50;45.20
5419;DHT22;2732;52.092;11.556;2023-07-20T15:27:26;30.40;45.30
5419;DHT22;2732;52.092;11.556;2023-07-20T15:32:27;30.50;45.70
5419;DHT22;2732;52.092;11.556;2023-07-20T15:37:27;30.10;46.20
5419;DHT22;2732;52.092;11.556;2023-07-20T15:42:28;29.90;45.90
5419;DHT22;2732;52.092;11.556;2023-07-20T15:47:29;29.70;46.00
5419;DHT22;2732;52.092;11.556;2023-07-20T15:52:29;29.30;46.20
5419;DHT22;2732;52.092;11.556;2023-07-20T15:57:30;28.90;46.00
5419;DHT22;2732;52.092;11.556;2023-07-20T16:02:31;28.60;45.90
5419;DHT22;2732;52.092;11.556;2023-07-20T16:07:31;28.60;46.30
5419;DHT22;2732;52.092;11.556;2023-07-20T16:12:33;28.50;46.70
5419;DHT22;2732;52.092;11.556;2023-07-20T16:17:33;28.50;46.50
5419;DHT22;2732;52.092;11.556;2023-07-20T16:22:34;28.30;46.30
5419;DHT22;2732;52.092;11.556;2023-07-20T16:27:35;28.30;47.10
5419;DHT22;2732;52.092;11.556;2023-07-20T16:32:35;28.40;45.80
5419;DHT22;2732;52.092;11.556;2023-07-20T16:37:36;28.30;45.70
5419;DHT22;2732;52.092;11.556;2023-07-20T16:42:38;28.10;46.60
5419;DHT22;2732;52.092;11.556;2023-07-20T16:47:39;27.60;47.00
5419;DHT22;2732;52.092;11.556;2023-07-20T16:52:40;27.30;47.70
5419;DHT22;2732;52.092;11.556;2023-07-20T16:57:42;27.10;47.80
5419;DHT22;2732;52.092;11.556;2023-07-20T17:02:42;27.00;48.20
5419;DHT22;2732;52.092;11.556;2023-07-20T17:07:44;26.90;48.20
5419;DHT22;2732;52.092;11.556;2023-07-20T17:12:44;26.70;48.50
5419;DHT22;2732;52.092;11.556;2023-07-20T17:17:45;26.40;48.50
5419;DHT22;2732;52.092;11.556;2023-07-20T17:22:46;26.20;49.50
5419;DHT22;2732;52.092;11.556;2023-07-20T17:27:46;25.90;50.00
5419;DHT22;2732;52.092;11.556;2023-07-20T17:32:49;25.60;50.20
5419;DHT22;2732;52.092;11.556;2023-07-20T17:37:51;25.50;50.60
5419;DHT22;2732;52.092;11.556;2023-07-20T17:42:52;25.50;51.40
5419;DHT22;2732;52.092;11.556;2023-07-20T17:47:52;25.40;51.20
5419;DHT22;2732;52.092;11.556;2023-07-20T17:52:53;25.40;51.20
5419;DHT22;2732;52.092;11.556;2023-07-20T17:57:56;25.30;51.50
5419;DHT22;2732;52.092;11.556;2023-07-20T18:02:57;25.10;51.70
5419;DHT22;2732;52.092;11.556;2023-07-20T18:07:57;24.80;51.90
5419;DHT22;2732;52.092;11.556;2023-07-20T18:12:58;24.50;52.70
5419;DHT22;2732;52.092;11.556;2023-07-20T18:17:59;24.20;53.40
5419;DHT22;2732;52.092;11.556;2023-07-20T18:22:59;24.00;54.10
5419;DHT22;2732;52.092;11.556;2023-07-20T18:28:01;23.70;54.90
5419;DHT22;2732;52.092;11.556;2023-07-20T18:33:02;23.40;55.70
5419;DHT22;2732;52.092;11.556;2023-07-20T18:38:04;23.20;56.20
5419;DHT22;2732;52.092;11.556;2023-07-20T18:43:05;22.90;57.00
5419;DHT22;2732;52.092;11.556;2023-07-20T18:48:06;22.70;57.40
5419;DHT22;2732;52.092;11.556;2023-07-20T18:53:07;22.40;58.00
5419;DHT22;2732;52.092;11.556;2023-07-20T18:58:08;22.20;59.10
5419;DHT22;2732;52.092;11.556;2023-07-20T19:03:09;22.00;60.90
5419;DHT22;2732;52.092;11.556;2023-07-20T19:08:09;21.70;62.50
5419;DHT22;2732;52.092;11.556;2023-07-20T19:13:10;21.40;64.10
5419;DHT22;2732;52.092;11.556;2023-07-20T19:18:11;21.20;64.70
5419;DHT22;2732;52.092;11.556;2023-07-20T19:23:11;20.90;65.10
5419;DHT22;2732;52.092;11.556;2023-07-20T19:28:12;20.70;65.70
5419;DHT22;2732;52.092;11.556;2023-07-20T19:33:13;20.40;65.70
5419;DHT22;2732;52.092;11.556;2023-07-20T19:38:22;20.20;65.40
5419;DHT22;2732;52.092;11.556;2023-07-20T19:43:24;19.90;65.60
5419;DHT22;2732;52.092;11.556;2023-07-20T19:48:26;19.70;66.20
5419;DHT22;2732;52.092;11.556;2023-07-20T19:53:26;19.50;66.80
5419;DHT22;2732;52.092;11.556;2023-07-20T19:58:28;19.30;67.60
5419;DHT22;2732;52.092;11.556;2023-07-20T20:03:29;19.10;68.40
5419;DHT22;2732;52.092;11.556;2023-07-20T20:08:29;18.90;70.00
5419;DHT22;2732;52.092;11.556;2023-07-20T20:13:32;18.70;71.10
5419;DHT22;2732;52.092;11.556;2023-07-20T20:18:33;18.50;72.00
5419;DHT22;2732;52.092;11.556;2023-07-20T20:23:34;18.30;72.80
5419;DHT22;2732;52.092;11.556;2023-07-20T20:28:34;18.10;73.70
5419;DHT22;2732;52.092;11.556;2023-07-20T20:33:35;17.90;74.60
5419;DHT22;2732;52.092;11.556;2023-07-20T20:38:37;17.80;75.60
5419;DHT22;2732;52.092;11.556;2023-07-20T20:43:38;17.60;76.30
5419;DHT22;2732;52.092;11.556;2023-07-20T20:48:41;17.40;77.00
5419;DHT22;2732;52.092;11.556;2023-07-20T20:53:45;17.30;77.20
5419;DHT22;2732;52.092;11.556;2023-07-20T20:58:46;17.10;77.80
5419;DHT22;2732;52.092;11.556;2023-07-20T21:03:48;17.00;78.40
5419;DHT22;2732;52.092;11.556;2023-07-20T21:08:49;16.90;79.30
5419;DHT22;2732;52.092;11.556;2023-07-20T21:13:49;16.80;79.50
5419;DHT22;2732;52.092;11.556;2023-07-20T21:18:50;16.70;79.70
5419;DHT22;2732;52.092;11.556;2023-07-20T21:23:51;16.60;80.50
5419;DHT22;2732;52.092;11.556;2023-07-20T21:28:51;16.50;81.60
5419;DHT22;2732;52.092;11.556;2023-07-20T21:33:52;16.30;82.50
5419;DHT22;2732;52.092;11.556;2023-07-20T21:38:53;16.20;83.90
5419;DHT22;2732;52.092;11.556;2023-07-20T21:43:53;16.10;84.50
5419;DHT22;2732;52.092;11.556;2023-07-20T21:48:54;16.00;85.00
5419;DHT22;2732;52.092;11.556;2023-07-20T21:53:55;15.90;85.70
5419;DHT22;2732;52.092;11.556;2023-07-20T21:58:55;15.80;86.60
5419;DHT22;2732;52.092;11.556;2023-07-20T22:03:56;15.70;87.50
5419;DHT22;2732;52.092;11.556;2023-07-20T22:08:56;15.60;88.30
5419;DHT22;2732;52.092;11.556;2023-07-20T22:13:57;15.50;89.30
5419;DHT22;2732;52.092;11.556;2023-07-20T22:18:58;15.40;90.00
5419;DHT22;2732;52.092;11.556;2023-07-20T22:23:58;15.30;90.30
5419;DHT22;2732;52.092;11.556;2023-07-20T22:28:59;15.20;90.70
5419;DHT22;2732;52.092;11.556;2023-07-20T22:34:00;15.10;91.00
5419;DHT22;2732;52.092;11.556;2023-07-20T22:39:01;15.10;91.40
5419;DHT22;2732;52.092;11.556;2023-07-20T22:44:05;15.00;91.80
5419;DHT22;2732;52.092;11.556;2023-07-20T22:49:06;14.90;92.20
5419;DHT22;2732;52.092;11.556;2023-07-20T22:54:06;14.80;92.60
5419;DHT22;2732;52.092;11.556;2023-07-20T22:59:08;14.80;93.00
5419;DHT22;2732;52.092;11.556;2023-07-20T23:04:11;14.70;93.30
5419;DHT22;2732;52.092;11.556;2023-07-20T23:09:12;14.60;93.60
5419;DHT22;2732;52.092;11.556;2023-07-20T23:14:14;14.60;94.00
5419;DHT22;2732;52.092;11.556;2023-07-20T23:19:14;14.50;94.20
5419;DHT22;2732;52.092;11.556;2023-07-20T23:24:15;14.50;94.60
5419;DHT22;2732;52.092;11.556;2023-07-20T23:29:15;14.40;94.90
5419;DHT22;2732;52.092;11.556;2023-07-20T23:34:17;14.40;95.30
5419;DHT22;2732;52.092;11.556;2023-07-20T23:39:17;14.30;95.70
5419;DHT22;2732;52.092;11.556;2023-07-20T23:44:18;14.20;96.00
5419;DHT22;2732;52.092;11.556;2023-07-20T23:49:19;14.20;96.40
5419;DHT22;2732;52.092;11.556;2023-07-20T23:54:23;14.10;96.70
5419;DHT22;2732;52.092;11.556;2023-07-20T23:59:24;14.10;97.10
